Schneifelwetter: Wetterstation Hallschlag, 537 m . NN
Wetterdaten: Sonntag, 30.09.2012
Datum Zeit Temp. A. Feuchte A. Luftdruck Regen Wind Richtung Richtung Sonnenschein T Regen Taupunkt Windchill
30.09.2012 00:14 1,9 C 92 % 1019 hPa 0,0 l/m 0,0 km/h (0 Bft) W 275 0 min 0 min 0,7 C 1,9 C
30.09.2012 00:29 1,5 C 92 % 1019 hPa 0,0 l/m 0,0 km/h (0 Bft) W 275 0 min 0 min 0,3 C 1,5 C
30.09.2012 00:44 1,4 C 92 % 1019 hPa 0,0 l/m 0,0 km/h (0 Bft) W 275 0 min 0 min 0,2 C 1,4 C
30.09.2012 00:59 1,6 C 93 % 1019 hPa 0,0 l/m 0,0 km/h (0 Bft) W 275 0 min 0 min 0,6 C 1,6 C
30.09.2012 01:14 1,5 C 93 % 1020 hPa 0,0 l/m 0,0 km/h (0 Bft) W 275 0 min 0 min 0,5 C 1,5 C
30.09.2012 01:29 1,5 C 93 % 1020 hPa 0,0 l/m 0,0 km/h (0 Bft) W 275 0 min 0 min 0,5 C 1,5 C
30.09.2012 01:44 1,3 C 93 % 1020 hPa 0,0 l/m 0,0 km/h (0 Bft) W 275 0 min 0 min 0,3 C 1,3 C
30.09.2012 01:59 1,2 C 92 % 1019 hPa 0,0 l/m 0,0 km/h (0 Bft) W 275 0 min 0 min 0,0 C 1,2 C
30.09.2012 02:14 0,7 C 92 % 1020 hPa 0,0 l/m 0,0 km/h (0 Bft) W 275 0 min 0 min -0,4 C 0,7 C
30.09.2012 02:29 0,3 C 93 % 1020 hPa 0,0 l/m 0,0 km/h (0 Bft) W 275 0 min 0 min -0,7 C 0,3 C
30.09.2012 02:44 0,2 C 93 % 1020 hPa 0,0 l/m 0,0 km/h (0 Bft) W 275 0 min 0 min -0,8 C 0,2 C
30.09.2012 02:59 -0,3 C 93 % 1020 hPa 0,0 l/m 0,0 km/h (0 Bft) W 275 0 min 0 min -1,3 C -0,3 C
30.09.2012 03:14 -0,7 C 93 % 1020 hPa 0,0 l/m 0,0 km/h (0 Bft) W 275 0 min 0 min -1,7 C -0,7 C
30.09.2012 03:29 -0,8 C 94 % 1020 hPa 0,0 l/m 0,0 km/h (0 Bft) W 275 0 min 0 min -1,6 C -0,8 C
30.09.2012 03:44 -0,8 C 94 % 1020 hPa 0,0 l/m 0,0 km/h (0 Bft) W 275 0 min 0 min -1,6 C -0,8 C
30.09.2012 03:59 -1,1 C 93 % 1020 hPa 0,0 l/m 0,0 km/h (0 Bft) W 275 0 min 0 min -2,1 C -1,1 C
30.09.2012 04:14 -1,0 C 94 % 1020 hPa 0,0 l/m 0,0 km/h (0 Bft) W 275 0 min 0 min -1,8 C -1,0 C
30.09.2012 04:29 -0,9 C 94 % 1020 hPa 0,0 l/m 0,0 km/h (0 Bft) W 275 0 min 0 min -1,7 C -0,9 C
30.09.2012 04:44 -1,1 C 94 % 1020 hPa 0,0 l/m 0,0 km/h (0 Bft) W 275 0 min 0 min -1,9 C -1,1 C
30.09.2012 04:59 -1,4 C 94 % 1019 hPa 0,0 l/m 0,0 km/h (0 Bft) W 275 0 min 0 min -2,2 C -1,4 C
30.09.2012 05:14 -1,5 C 94 % 1019 hPa 0,0 l/m 0,0 km/h (0 Bft) W 275 0 min 0 min -2,3 C -1,5 C
30.09.2012 05:29 -1,6 C 94 % 1019 hPa 0,0 l/m 0,0 km/h (0 Bft) W 275 0 min 0 min -2,4 C -1,6 C
30.09.2012 05:44 -1,7 C 94 % 1020 hPa 0,0 l/m 0,0 km/h (0 Bft) W 275 0 min 0 min -2,5 C -1,7 C
30.09.2012 05:59 -1,4 C 95 % 1019 hPa 0,0 l/m 0,0 km/h (0 Bft) W 275 0 min 0 min -2,1 C -1,4 C
30.09.2012 06:14 -1,4 C 95 % 1020 hPa 0,0 l/m 0,0 km/h (0 Bft) W 275 0 min 0 min -2,1 C -1,4 C
30.09.2012 06:29 -1,3 C 95 % 1020 hPa 0,0 l/m 0,0 km/h (0 Bft) W 275 0 min 0 min -2,0 C -1,3 C
30.09.2012 06:44 -1,3 C 95 % 1020 hPa 0,0 l/m 0,0 km/h (0 Bft) W 275 0 min 0 min -2,0 C -1,3 C
30.09.2012 06:59 -1,3 C 95 % 1020 hPa 0,0 l/m 0,0 km/h (0 Bft) W 275 0 min 0 min -2,0 C -1,3 C
30.09.2012 07:14 -1,4 C 95 % 1020 hPa 0,0 l/m 0,0 km/h (0 Bft) W 275 0 min 0 min -2,1 C -1,4 C
30.09.2012 07:29 -1,5 C 95 % 1020 hPa 0,0 l/m 0,0 km/h (0 Bft) W 275 0 min 0 min -2,2 C -1,5 C
30.09.2012 07:44 -1,6 C 95 % 1020 hPa 0,0 l/m 0,0 km/h (0 Bft) W 275 0 min 0 min -2,3 C -1,6 C
30.09.2012 07:59 -1,6 C 95 % 1020 hPa 0,0 l/m 0,0 km/h (0 Bft) W 275 0 min 0 min -2,3 C -1,6 C
30.09.2012 08:14 -1,4 C 95 % 1020 hPa 0,0 l/m 0,0 km/h (0 Bft) W 275 0 min 0 min -2,1 C -1,4 C
30.09.2012 08:29 -1,0 C 96 % 1020 hPa 0,0 l/m 0,0 km/h (0 Bft) W 275 0 min 0 min -1,6 C -1,0 C
30.09.2012 08:44 -0,8 C 96 % 1020 hPa 0,0 l/m 0,0 km/h (0 Bft) W 275 0 min 0 min -1,4 C -0,8 C
30.09.2012 08:59 -0,4 C 96 % 1020 hPa 0,0 l/m 0,0 km/h (0 Bft) W 275 0 min 0 min -1,0 C -0,4 C
30.09.2012 09:14 0,2 C 96 % 1020 hPa 0,0 l/m 0,0 km/h (0 Bft) W 275 0 min 0 min -0,4 C 0,2 C
30.09.2012 09:29 0,6 C 96 % 1020 hPa 0,0 l/m 0,0 km/h (0 Bft) W 275 0 min 0 min 0,0 C 0,6 C
30.09.2012 09:45 1,3 C 97 % 1021 hPa 0,0 l/m 0,0 km/h (0 Bft) W 275 0 min 0 min 0,9 C 1,3 C
30.09.2012 10:00 2,9 C 97 % 1020 hPa 0,0 l/m 0,0 km/h (0 Bft) W 275 0 min 0 min 2,5 C 2,9 C
30.09.2012 10:14 4,3 C 97 % 1020 hPa 0,3 l/m 0,0 km/h (0 Bft) W 275 0 min 14 min 3,9 C 4,3 C
30.09.2012 10:29 5,6 C 97 % 1020 hPa 0,0 l/m 0,0 km/h (0 Bft) W 275 0 min 0 min 5,2 C 5,6 C
30.09.2012 10:44 6,7 C 97 % 1021 hPa 0,0 l/m 0,0 km/h (0 Bft) W 275 0 min 0 min 6,3 C 6,7 C
30.09.2012 10:59 7,8 C 96 % 1021 hPa 0,0 l/m 0,0 km/h (0 Bft) W 275 0 min 0 min 7,2 C 7,8 C
30.09.2012 11:15 8,7 C 93 % 1021 hPa 0,0 l/m 7,1 km/h (2 Bft) W-SW 250 0 min 0 min 7,6 C 8,2 C
30.09.2012 11:30 9,2 C 88 % 1021 hPa 0,0 l/m 11,1 km/h (2 Bft) W-SW 250 0 min 0 min 7,3 C 6,1 C
30.09.2012 11:44 9,7 C 84 % 1021 hPa 0,0 l/m 17,1 km/h (3 Bft) W-SW 255 0 min 0 min 7,1 C 3,9 C
30.09.2012 11:59 10,3 C 78 % 1021 hPa 0,0 l/m 14,2 km/h (3 Bft) W-SW45 255 0 min 0 min 6,6 C 5,8 C
30.09.2012 12:14 10,7 C 76 % 1021 hPa 0,0 l/m 18,3 km/h (3 Bft) W22.5 260 0 min 0 min 6,6 C 4,7 C
30.09.2012 12:30 10,9 C 75 % 1020 hPa 0,0 l/m 15,5 km/h (3 Bft) SW45 230 0 min 0 min 6,6 C 6,0 C
30.09.2012 12:45 11,1 C 72 % 1020 hPa 0,0 l/m 23,3 km/h (4 Bft) W-SW67.5 255 0 min 0 min 6,2 C 3,8 C
30.09.2012 13:00 11,1 C 71 % 1020 hPa 0,0 l/m 22,6 km/h (4 Bft) W45 270 0 min 0 min 6,0 C 3,9 C
30.09.2012 13:14 11,4 C 72 % 1020 hPa 0,0 l/m 22,0 km/h (4 Bft) W-SW45 255 0 min 0 min 6,5 C 4,5 C
30.09.2012 13:29 11,6 C 73 % 1020 hPa 0,0 l/m 14,9 km/h (3 Bft) SW22.5 230 0 min 0 min 6,9 C 7,1 C
30.09.2012 13:44 11,8 C 72 % 1020 hPa 0,0 l/m 23,0 km/h (4 Bft) W-SW22.5 250 0 min 0 min 6,9 C 4,8 C
30.09.2012 13:59 12,0 C 72 % 1020 hPa 0,0 l/m 17,1 km/h (3 Bft) W-SW 250 0 min 0 min 7,1 C 6,8 C
30.09.2012 14:15 12,1 C 70 % 1020 hPa 0,0 l/m 18,5 km/h (3 Bft) W-SW22.5 240 0 min 0 min 6,8 C 6,5 C
30.09.2012 14:30 12,2 C 70 % 1020 hPa 0,0 l/m 15,4 km/h (3 Bft) W-SW22.5 255 0 min 0 min 6,9 C 7,6 C
30.09.2012 14:44 12,4 C 69 % 1020 hPa 0,0 l/m 15,4 km/h (3 Bft) W-SW22.5 255 0 min 0 min 6,9 C 7,9 C
30.09.2012 14:59 12,4 C 67 % 1020 hPa 0,0 l/m 15,0 km/h (3 Bft) W-SW22.5 250 0 min 0 min 6,4 C 8,0 C
30.09.2012 15:14 12,4 C 66 % 1020 hPa 0,0 l/m 15,0 km/h (3 Bft) W-SW22.5 250 0 min 0 min 6,2 C 8,0 C
30.09.2012 15:29 12,6 C 66 % 1020 hPa 0,0 l/m 10,0 km/h (2 Bft) W-SW22.5 250 0 min 0 min 6,4 C 10,5 C
30.09.2012 15:45 12,7 C 66 % 1020 hPa 0,0 l/m 10,0 km/h (2 Bft) W-SW22.5 250 0 min 0 min 6,5 C 10,6 C
30.09.2012 16:00 12,9 C 66 % 1019 hPa 0,0 l/m 10,0 km/h (2 Bft) W-SW22.5 250 0 min 0 min 6,7 C 10,8 C
30.09.2012 16:15 12,9 C 66 % 1019 hPa 0,0 l/m 10,0 km/h (2 Bft) W-SW22.5 250 0 min 0 min 6,7 C 10,8 C
30.09.2012 16:29 13,0 C 64 % 1019 hPa 0,0 l/m 17,6 km/h (3 Bft) SW22.5 225 0 min 0 min 6,4 C 7,9 C
30.09.2012 16:44 13,0 C 64 % 1019 hPa 0,0 l/m 16,6 km/h (3 Bft) W-SW 255 0 min 0 min 6,4 C 8,2 C
30.09.2012 16:59 13,0 C 64 % 1019 hPa 0,0 l/m 2,1 km/h (1 Bft) W-SW22.5 255 0 min 0 min 6,4 C 13,0 C
30.09.2012 17:14 13,0 C 64 % 1019 hPa 0,0 l/m 16,4 km/h (3 Bft) W-SW45 240 0 min 0 min 6,4 C 8,3 C
30.09.2012 17:30 12,8 C 65 % 1019 hPa 0,0 l/m 15,3 km/h (3 Bft) W-SW 245 0 min 0 min 6,4 C 8,4 C
30.09.2012 17:45 12,6 C 65 % 1019 hPa 0,0 l/m 11,7 km/h (2 Bft) W-SW22.5 255 0 min 0 min 6,2 C 9,6 C
30.09.2012 17:59 12,4 C 67 % 1019 hPa 0,0 l/m 11,1 km/h (2 Bft) S22.5 185 0 min 0 min 6,4 C 9,7 C
30.09.2012 18:14 12,0 C 67 % 1018 hPa 0,0 l/m 8,5 km/h (2 Bft) SW45 220 0 min 0 min 6,1 C 10,6 C
30.09.2012 18:29 11,3 C 69 % 1018 hPa 0,0 l/m 1,6 km/h (1 Bft) S-SW 210 0 min 0 min 5,8 C 11,3 C
30.09.2012 18:44 10,5 C 70 % 1018 hPa 0,0 l/m 0,0 km/h (0 Bft) S-SW 210 0 min 0 min 5,3 C 10,5 C
30.09.2012 19:00 9,8 C 73 % 1018 hPa 0,0 l/m 0,0 km/h (0 Bft) S-SW 210 0 min 0 min 5,2 C 9,8 C
30.09.2012 19:15 9,1 C 74 % 1018 hPa 0,0 l/m 0,0 km/h (0 Bft) S-SW 210 0 min 0 min 4,7 C 9,1 C
30.09.2012 19:30 8,2 C 75 % 1018 hPa 0,0 l/m 0,0 km/h (0 Bft) S-SW 210 0 min 0 min 4,0 C 8,2 C
30.09.2012 19:44 7,3 C 76 % 1018 hPa 0,0 l/m 0,0 km/h (0 Bft) S-SW 210 0 min 0 min 3,4 C 7,3 C
30.09.2012 19:59 6,4 C 78 % 1018 hPa 0,0 l/m 0,0 km/h (0 Bft) S-SW 210 0 min 0 min 2,8 C 6,4 C
30.09.2012 20:14 6,1 C 80 % 1018 hPa 0,0 l/m 0,0 km/h (0 Bft) S-SW 210 0 min 0 min 2,9 C 6,1 C
30.09.2012 20:29 5,7 C 81 % 1018 hPa 0,0 l/m 0,0 km/h (0 Bft) S-SW 210 0 min 0 min 2,7 C 5,7 C
30.09.2012 20:45 5,3 C 82 % 1018 hPa 0,0 l/m 0,0 km/h (0 Bft) S-SW 210 0 min 0 min 2,5 C 5,3 C
30.09.2012 21:00 4,5 C 83 % 1019 hPa 0,0 l/m 0,0 km/h (0 Bft) S-SW 210 0 min 0 min 1,9 C 4,5 C
30.09.2012 21:14 4,1 C 84 % 1019 hPa 0,0 l/m 0,0 km/h (0 Bft) S-SW 210 0 min 0 min 1,6 C 4,1 C
30.09.2012 21:29 3,6 C 84 % 1019 hPa 0,0 l/m 0,0 km/h (0 Bft) S-SW 210 0 min 0 min 1,2 C 3,6 C
30.09.2012 21:44 3,2 C 85 % 1018 hPa 0,0 l/m 0,0 km/h (0 Bft) S-SW 210 0 min 0 min 0,9 C 3,2 C
30.09.2012 21:59 3,0 C 86 % 1018 hPa 0,0 l/m 0,0 km/h (0 Bft) S-SW 210 0 min 0 min 0,9 C 3,0 C
30.09.2012 22:14 2,7 C 86 % 1018 hPa 0,0 l/m 0,0 km/h (0 Bft) S-SW 210 0 min 0 min 0,6 C 2,7 C
30.09.2012 22:30 2,3 C 87 % 1018 hPa 0,0 l/m 0,0 km/h (0 Bft) S-SW 210 0 min 0 min 0,4 C 2,3 C
30.09.2012 22:45 2,0 C 87 % 1018 hPa 0,0 l/m 0,0 km/h (0 Bft) S-SW 210 0 min 0 min 0,1 C 2,0 C
30.09.2012 22:59 1,8 C 88 % 1018 hPa 0,0 l/m 0,0 km/h (0 Bft) S-SW 210 0 min 0 min 0,0 C 1,8 C
30.09.2012 23:14 1,5 C 88 % 1018 hPa 0,0 l/m 0,0 km/h (0 Bft) S-SW 210 0 min 0 min -0,3 C 1,5 C
30.09.2012 23:29 1,3 C 89 % 1018 hPa 0,0 l/m 0,0 km/h (0 Bft) S-SW 210 0 min 0 min -0,3 C 1,3 C
30.09.2012 23:44 1,2 C 89 % 1018 hPa 0,0 l/m 0,0 km/h (0 Bft) S-SW 210 0 min 0 min -0,4 C 1,2 C
30.09.2012 23:59 1,0 C 90 % 1018 hPa 0,0 l/m 0,0 km/h (0 Bft) S-SW 210 0 min 0 min -0,5 C 1,0 C
_ Min-Zeit 05:44 16:29 18:14 - 00:14 - - - - 05:44 05:44
Minimum _ -1,7 C 64 % 1018 hPa - 0,0 km/h (0 Bft) - - - - -2,5 C -1,7 C
_ Max-Zeit 16:29 09:45 09:45 10:14 12:45 - - 00:14 10:14 11:15 16:59
Maximum _ 13,0 C 97 % 1021 hPa 0,3 l/m 23,3 km/h
W-SW (4 Bft)
- - 0 min 14 min 7,6 C 13,0 C
Durchschnitt _ 4,9 C 84 % 1020 hPa #0,3 l/m 4,4 km/h (1 Bft) W-SW - #0 min. #14 min. 2,2 C 3,6 C